Hunnewell, Missouri
Current Conditions -  °F | °C
As of 4:55 AM on Friday 28 Nov 2014 (Local Time) from KHAE Reporting Station
Clear Clear  
Wind Chill: 17°   Ceiling: Unl
Heat Index: 27°   Visibility: 10mi
Dew Point: 19°   Wind: 10mph
Humidity: 74%   Direction: 150°SSE
Pressure: 30.17"   Gusts: 18mph
Location:  39.67°N, 91.86°W
Report Text: KHAE 281055Z AUTO 15009G16KT 10SM CLR M03/M07 A3017 RMK AO2
Loading
Personal Weather Stations






























Interactive Weather Map New forecast layout! Learn more

10-Day Weather Forecast

Advertisements
Track Severe Weather on mobile